createdAt,value
2023-04-10T00:00:12.235Z,19.65
2023-04-10T00:04:14.641Z,19.95
2023-04-10T00:08:16.331Z,20.17
2023-04-10T00:12:18.145Z,19.23
2023-04-10T00:16:20.094Z,20.17
2023-04-10T00:20:22.969Z,20.48
2023-04-10T00:24:24.515Z,20.40
2023-04-10T00:28:25.996Z,19.77
2023-04-10T00:32:27.461Z,20.00
2023-04-10T00:36:28.921Z,20.33
2023-04-10T00:40:30.503Z,20.10
2023-04-10T00:44:31.996Z,20.30
2023-04-10T00:48:34.447Z,20.55
2023-04-10T00:52:36.150Z,18.90
2023-04-10T00:56:37.815Z,20.63
2023-04-10T01:00:39.324Z,21.33
2023-04-10T01:04:42.062Z,23.40
2023-04-10T01:09:00.760Z,26.60
2023-04-10T01:13:16.339Z,22.98
2023-04-10T01:17:30.601Z,21.65
2023-04-10T01:21:36.472Z,21.25
2023-04-10T01:25:56.559Z,19.70
2023-04-10T01:30:02.618Z,20.45
2023-04-10T01:34:16.275Z,20.50
2023-04-10T01:38:20.670Z,22.27
2023-04-10T01:42:23.883Z,19.00
2023-04-10T01:46:27.360Z,20.40
2023-04-10T01:50:30.538Z,20.00
2023-04-10T01:54:33.449Z,22.17
2023-04-10T01:58:35.910Z,21.23
2023-04-10T02:02:37.698Z,22.00
2023-04-10T02:06:56.378Z,24.20
2023-04-10T02:11:26.602Z,21.17
2023-04-10T02:15:32.461Z,24.05
2023-04-10T02:19:35.477Z,24.38
2023-04-10T02:23:37.280Z,25.02
2023-04-10T02:27:39.288Z,22.92
2023-04-10T02:31:44.524Z,23.17
2023-04-10T02:35:46.037Z,23.27
2023-04-10T02:39:47.528Z,24.05
2023-04-10T02:43:48.967Z,22.80
2023-04-10T02:47:50.494Z,23.58
2023-04-10T02:51:51.948Z,23.90
2023-04-10T02:55:54.725Z,24.08
2023-04-10T02:59:56.177Z,24.55
2023-04-10T03:03:58.439Z,23.48
2023-04-10T03:08:00.193Z,22.67
2023-04-10T03:12:02.333Z,21.35
2023-04-10T03:16:03.911Z,21.98
2023-04-10T03:20:05.923Z,20.30
2023-04-10T03:24:07.374Z,22.27
2023-04-10T03:28:09.127Z,21.13
2023-04-10T03:32:10.566Z,22.05
2023-04-10T03:36:12.499Z,22.08
2023-04-10T03:40:13.996Z,21.80
2023-04-10T03:44:15.619Z,20.80
2023-04-10T03:48:17.865Z,21.40
2023-04-10T03:52:19.271Z,21.75
2023-04-10T03:56:20.684Z,21.08
2023-04-10T04:00:22.210Z,20.65
2023-04-10T04:04:23.834Z,19.80
2023-04-10T04:08:28.330Z,21.88
2023-04-10T04:12:29.826Z,21.90
2023-04-10T04:16:31.311Z,25.35
2023-04-10T04:20:32.854Z,26.80
2023-04-10T04:24:36.579Z,24.05
2023-04-10T04:28:38.021Z,24.90
2023-04-10T04:32:42.598Z,23.88
2023-04-10T04:36:44.202Z,22.17
2023-04-10T04:40:46.192Z,24.73
2023-04-10T04:44:49.514Z,24.38
2023-04-10T04:48:50.966Z,23.45
2023-04-10T04:52:52.395Z,24.70
2023-04-10T04:56:53.905Z,23.50
2023-04-10T05:00:55.484Z,25.30
2023-04-10T05:04:56.962Z,23.73
2023-04-10T05:08:58.397Z,21.90
2023-04-10T05:12:59.799Z,23.42
2023-04-10T05:17:03.362Z,23.13
2023-04-10T05:21:05.442Z,24.15
2023-04-10T05:25:07.369Z,22.90
2023-04-10T05:29:08.794Z,24.50
2023-04-10T05:33:10.345Z,24.75
2023-04-10T05:37:13.003Z,24.98
2023-04-10T05:41:14.610Z,24.40
2023-04-10T05:45:16.175Z,24.27
2023-04-10T05:49:17.606Z,21.88
2023-04-10T05:53:20.219Z,22.15
2023-04-10T05:57:21.718Z,19.77
2023-04-10T06:01:23.193Z,20.08
2023-04-10T06:05:24.718Z,18.35
2023-04-10T06:09:26.244Z,19.33
2023-04-10T06:13:27.865Z,21.45
2023-04-10T06:17:29.798Z,20.67
2023-04-10T06:21:31.765Z,20.90
2023-04-10T06:25:33.349Z,20.65
2023-04-10T06:29:34.909Z,19.85
2023-04-10T06:33:39.246Z,20.20
2023-04-10T06:37:40.727Z,22.08
2023-04-10T06:41:42.201Z,21.13
2023-04-10T06:45:43.719Z,21.25
2023-04-10T06:49:45.275Z,24.50
2023-04-10T06:53:47.120Z,25.73
2023-04-10T06:57:48.555Z,24.42
2023-04-10T07:01:49.992Z,25.67
2023-04-10T07:05:51.532Z,23.65
2023-04-10T07:09:52.989Z,25.08
2023-04-10T07:13:58.552Z,25.02
2023-04-10T07:18:00.121Z,27.20
2023-04-10T07:22:01.675Z,28.40
2023-04-10T07:26:03.090Z,26.35
2023-04-10T07:30:05.260Z,25.80
2023-04-10T07:34:07.063Z,25.95
2023-04-10T07:38:08.647Z,25.45
2023-04-10T07:42:11.336Z,28.70
2023-04-10T07:46:12.883Z,26.33
2023-04-10T07:50:14.428Z,25.80
2023-04-10T07:54:15.920Z,25.25
2023-04-10T07:58:17.419Z,24.45
2023-04-10T08:02:18.962Z,23.60
2023-04-10T08:06:20.883Z,23.23
2023-04-10T08:10:22.581Z,21.80
2023-04-10T08:14:24.085Z,20.95
2023-04-10T08:18:25.624Z,20.27
2023-04-10T08:22:27.069Z,20.92
2023-04-10T08:26:29.187Z,21.27
2023-04-10T08:30:30.829Z,19.83
2023-04-10T08:34:32.296Z,19.40
2023-04-10T08:38:34.052Z,19.13
2023-04-10T08:42:36.375Z,19.33
2023-04-10T08:46:42.978Z,19.58
2023-04-10T08:50:46.119Z,18.75
2023-04-10T08:54:50.740Z,17.48
2023-04-10T08:58:53.005Z,18.75
2023-04-10T09:02:58.193Z,23.80
2023-04-10T09:07:00.614Z,19.15
2023-04-10T09:11:02.327Z,18.48
2023-04-10T09:15:04.103Z,19.05
2023-04-10T09:19:06.585Z,19.40
2023-04-10T09:23:22.296Z,17.02
2023-04-10T09:27:35.496Z,17.88
2023-04-10T09:31:38.943Z,15.68
2023-04-10T09:35:40.976Z,13.45
2023-04-10T09:39:43.682Z,16.67
2023-04-10T09:43:46.193Z,17.52
2023-04-10T09:48:05.792Z,12.73
2023-04-10T09:52:20.310Z,11.27
2023-04-10T09:56:23.021Z,10.90
2023-04-10T10:00:26.584Z,11.02
2023-04-10T10:04:28.882Z,11.20
2023-04-10T10:08:33.146Z,11.70
2023-04-10T10:12:43.999Z,10.40
2023-04-10T10:16:56.644Z,10.45
2023-04-10T10:20:59.197Z,9.48
2023-04-10T10:25:02.379Z,8.63
2023-04-10T10:29:06.924Z,9.38
2023-04-10T10:33:10.243Z,9.35
2023-04-10T10:37:12.778Z,9.50
2023-04-10T10:41:21.215Z,9.02
2023-04-10T10:45:34.658Z,8.87
2023-04-10T10:49:51.962Z,8.38
2023-04-10T10:53:53.454Z,8.55
2023-04-10T10:57:56.201Z,8.73
2023-04-10T11:02:17.792Z,8.88
2023-04-10T11:06:21.467Z,9.77
2023-04-10T11:11:00.494Z,8.57
2023-04-10T11:15:04.942Z,8.20
2023-04-10T11:19:14.281Z,8.60
2023-04-10T11:23:20.369Z,9.20
2023-04-10T11:27:51.564Z,9.43
2023-04-10T11:32:01.545Z,8.23
2023-04-10T11:36:03.675Z,8.95
2023-04-10T11:40:06.318Z,8.00
2023-04-10T11:44:10.774Z,8.48
2023-04-10T11:48:12.290Z,8.35
2023-04-10T11:52:24.206Z,8.18
2023-04-10T11:56:25.649Z,8.50
2023-04-10T12:00:27.060Z,7.53
2023-04-10T12:04:28.762Z,8.20
2023-04-10T12:08:31.684Z,8.70
2023-04-10T12:12:37.053Z,7.65
2023-04-10T12:16:38.700Z,7.15
2023-04-10T12:20:40.411Z,7.45
2023-04-10T12:24:48.797Z,7.25
2023-04-10T12:28:55.052Z,7.57
2023-04-10T12:32:57.513Z,7.13
2023-04-10T12:36:59.019Z,7.40
2023-04-10T12:41:01.474Z,7.28
2023-04-10T12:45:03.413Z,6.32
2023-04-10T12:49:16.340Z,6.50
2023-04-10T12:53:18.006Z,5.57
2023-04-10T12:57:28.353Z,8.93
2023-04-10T13:01:29.806Z,6.03
2023-04-10T13:05:31.363Z,6.55
2023-04-10T13:09:32.821Z,5.43
2023-04-10T13:13:34.259Z,6.38
2023-04-10T13:17:35.880Z,5.20
2023-04-10T13:21:37.454Z,6.05
2023-04-10T13:25:40.243Z,6.30
2023-04-10T13:29:42.939Z,5.40
2023-04-10T13:33:48.718Z,6.20
2023-04-10T13:37:53.087Z,5.85
2023-04-10T13:41:54.592Z,6.10
2023-04-10T13:45:56.098Z,6.05
2023-04-10T13:49:57.534Z,6.03
2023-04-10T13:53:59.080Z,5.95
2023-04-10T13:58:00.545Z,5.68
2023-04-10T14:02:02.177Z,5.55
2023-04-10T14:06:03.905Z,5.95
2023-04-10T14:10:06.928Z,6.38
2023-04-10T14:14:08.678Z,5.40
2023-04-10T14:18:10.284Z,5.60
2023-04-10T14:22:12.536Z,5.50
2023-04-10T14:26:14.018Z,5.25
2023-04-10T14:30:15.518Z,6.25
2023-04-10T14:34:17.059Z,6.25
2023-04-10T14:38:18.580Z,5.72
2023-04-10T14:42:20.122Z,5.90
2023-04-10T14:46:21.580Z,6.13
2023-04-10T14:50:23.039Z,6.95
2023-04-10T14:54:24.582Z,6.43
2023-04-10T14:58:26.083Z,7.00
2023-04-10T15:02:28.206Z,6.60
2023-04-10T15:06:32.311Z,6.47
2023-04-10T15:10:33.734Z,6.63
2023-04-10T15:14:35.246Z,6.20
2023-04-10T15:18:36.682Z,6.97
2023-04-10T15:22:38.214Z,7.15
2023-04-10T15:26:46.291Z,7.22
2023-04-10T15:30:49.713Z,7.13
2023-04-10T15:34:51.237Z,6.75
2023-04-10T15:38:52.706Z,5.85
2023-04-10T15:42:54.141Z,6.20
2023-04-10T15:46:55.600Z,6.18
2023-04-10T15:50:57.007Z,5.90
2023-04-10T15:54:58.550Z,5.78
2023-04-10T15:59:00.162Z,5.40
2023-04-10T16:03:01.828Z,6.95
2023-04-10T16:07:03.448Z,5.40
2023-04-10T16:11:05.372Z,6.80
2023-04-10T16:15:08.360Z,6.13
2023-04-10T16:19:10.067Z,5.60
2023-04-10T16:23:11.616Z,5.65
2023-04-10T16:27:13.097Z,6.75
2023-04-10T16:31:14.591Z,7.07
2023-04-10T16:35:18.062Z,6.82
2023-04-10T16:39:19.724Z,6.43
2023-04-10T16:43:23.164Z,7.07
2023-04-10T16:47:25.503Z,6.82
2023-04-10T16:51:27.378Z,6.88
2023-04-10T16:55:28.916Z,7.05
2023-04-10T16:59:30.476Z,6.93
2023-04-10T17:03:33.552Z,7.00
2023-04-10T17:07:35.051Z,6.70
2023-04-10T17:11:36.539Z,5.68
2023-04-10T17:15:38.010Z,5.82
2023-04-10T17:19:39.580Z,5.40
2023-04-10T17:23:41.495Z,5.13
2023-04-10T17:27:42.914Z,5.28
2023-04-10T17:31:44.571Z,5.68
2023-04-10T17:35:46.113Z,5.65
2023-04-10T17:39:47.607Z,5.60
2023-04-10T17:43:49.206Z,5.25
2023-04-10T17:47:50.692Z,5.38
2023-04-10T17:51:52.271Z,5.35
2023-04-10T17:55:53.669Z,6.07
2023-04-10T17:59:55.232Z,6.20
2023-04-10T18:04:02.696Z,5.85
2023-04-10T18:08:04.434Z,5.18
2023-04-10T18:12:05.961Z,5.13
2023-04-10T18:16:08.250Z,5.78
2023-04-10T18:20:10.420Z,5.97
2023-04-10T18:24:12.125Z,5.75
2023-04-10T18:28:15.552Z,6.05
2023-04-10T18:32:17.988Z,6.18
2023-04-10T18:36:21.519Z,6.28
2023-04-10T18:40:23.969Z,6.25
2023-04-10T18:44:25.464Z,5.80
2023-04-10T18:48:27.004Z,6.18
2023-04-10T18:52:28.478Z,6.20
2023-04-10T18:56:30.491Z,7.20
2023-04-10T19:00:33.956Z,6.28
2023-04-10T19:04:35.599Z,6.50
2023-04-10T19:08:37.367Z,5.53
2023-04-10T19:12:40.338Z,5.97
2023-04-10T19:16:41.973Z,6.00
2023-04-10T19:20:49.082Z,5.57
2023-04-10T19:24:54.385Z,5.38
2023-04-10T19:28:56.148Z,5.72
2023-04-10T19:32:57.987Z,6.10
2023-04-10T19:36:59.569Z,6.53
2023-04-10T19:41:01.111Z,6.50
2023-04-10T19:45:04.477Z,6.15
2023-04-10T19:49:06.063Z,5.78
2023-04-10T19:53:07.734Z,6.22
2023-04-10T19:57:09.313Z,5.40
2023-04-10T20:01:11.878Z,5.63
2023-04-10T20:05:13.651Z,6.15
2023-04-10T20:09:16.137Z,5.70
2023-04-10T20:13:17.541Z,5.55
2023-04-10T20:17:19.087Z,5.22
2023-04-10T20:21:21.896Z,5.38
2023-04-10T20:25:23.327Z,5.82
2023-04-10T20:29:24.829Z,5.80
2023-04-10T20:33:26.318Z,5.63
2023-04-10T20:37:27.830Z,5.80
2023-04-10T20:41:29.348Z,5.15
2023-04-10T20:45:31.035Z,5.72
2023-04-10T20:49:32.706Z,6.20
2023-04-10T20:53:34.153Z,6.15
2023-04-10T20:57:35.672Z,5.35
2023-04-10T21:01:37.343Z,5.20
2023-04-10T21:05:41.423Z,6.05
2023-04-10T21:09:42.977Z,6.78
2023-04-10T21:13:44.394Z,6.63
2023-04-10T21:17:45.844Z,6.10
2023-04-10T21:21:47.313Z,6.03
2023-04-10T21:25:52.655Z,5.57
2023-04-10T21:29:54.106Z,5.90
2023-04-10T21:33:55.637Z,5.75
2023-04-10T21:38:01.805Z,6.32
2023-04-10T21:42:03.614Z,6.50
2023-04-10T21:46:06.110Z,5.50
2023-04-10T21:50:08.121Z,6.32
2023-04-10T21:54:09.561Z,5.72
2023-04-10T21:58:11.029Z,6.50
2023-04-10T22:02:13.145Z,5.55
2023-04-10T22:06:14.865Z,6.38
2023-04-10T22:10:16.490Z,6.35
2023-04-10T22:14:20.080Z,5.78
2023-04-10T22:18:22.853Z,5.90
2023-04-10T22:22:24.383Z,5.75
2023-04-10T22:26:26.057Z,6.10
2023-04-10T22:30:27.590Z,6.35
2023-04-10T22:34:29.035Z,6.30
2023-04-10T22:38:30.790Z,5.72
2023-04-10T22:42:32.207Z,6.22
2023-04-10T22:46:33.993Z,5.82
2023-04-10T22:50:35.506Z,5.80
2023-04-10T22:54:36.969Z,6.65
2023-04-10T22:58:39.705Z,5.95
2023-04-10T23:02:41.341Z,5.57
2023-04-10T23:06:42.894Z,6.13
2023-04-10T23:10:44.346Z,5.88
2023-04-10T23:14:45.786Z,5.65
2023-04-10T23:18:47.177Z,5.30
2023-04-10T23:22:48.650Z,5.63
2023-04-10T23:26:50.132Z,5.60
2023-04-10T23:30:51.629Z,5.97
2023-04-10T23:34:53.056Z,6.55
2023-04-10T23:38:55.019Z,5.70
2023-04-10T23:42:56.767Z,5.97
2023-04-10T23:46:58.258Z,6.07
2023-04-10T23:51:04.561Z,5.93
2023-04-10T23:55:06.404Z,4.53
2023-04-10T23:59:07.881Z,7.07
